createdAt,value
2018-10-21T00:00:46.510Z,1021.22
2018-10-21T00:01:47.885Z,1021.17
2018-10-21T00:02:49.260Z,1021.20
2018-10-21T00:03:50.642Z,1021.22
2018-10-21T00:04:52.015Z,1021.19
2018-10-21T00:05:53.390Z,1021.20
2018-10-21T00:06:54.770Z,1021.22
2018-10-21T00:07:56.164Z,1021.27
2018-10-21T00:08:57.568Z,1021.19
2018-10-21T00:09:58.922Z,1021.24
2018-10-21T00:11:00.297Z,1021.19
2018-10-21T00:12:01.711Z,1021.21
2018-10-21T00:13:03.054Z,1021.17
2018-10-21T00:14:04.423Z,1021.21
2018-10-21T00:15:05.819Z,1021.21
2018-10-21T00:16:07.205Z,1021.22
2018-10-21T00:17:08.557Z,1021.23
2018-10-21T00:18:09.935Z,1021.21
2018-10-21T00:19:11.312Z,1021.20
2018-10-21T00:20:13.501Z,1021.16
2018-10-21T00:21:14.921Z,1021.15
2018-10-21T00:22:16.263Z,1021.16
2018-10-21T00:23:17.644Z,1021.17
2018-10-21T00:24:19.020Z,1021.15
2018-10-21T00:25:20.397Z,1021.20
2018-10-21T00:26:21.774Z,1021.12
2018-10-21T00:27:23.155Z,1021.11
2018-10-21T00:28:24.526Z,1021.09
2018-10-21T00:29:25.900Z,1021.08
2018-10-21T00:30:27.274Z,1021.10
2018-10-21T00:31:28.652Z,1021.11
2018-10-21T00:32:30.023Z,1021.08
2018-10-21T00:33:31.400Z,1021.11
2018-10-21T00:34:32.770Z,1021.17
2018-10-21T00:35:34.145Z,1021.13
2018-10-21T00:36:35.515Z,1021.12
2018-10-21T00:37:36.897Z,1021.12
2018-10-21T00:38:38.273Z,1021.08
2018-10-21T00:39:39.649Z,1021.13
2018-10-21T00:40:41.038Z,1021.10
2018-10-21T00:41:42.416Z,1021.10
2018-10-21T00:42:43.793Z,1021.10
2018-10-21T00:43:45.169Z,1021.13
2018-10-21T00:44:46.547Z,1021.14
2018-10-21T00:45:47.923Z,1021.13
2018-10-21T00:46:49.307Z,1021.09
2018-10-21T00:47:50.681Z,1021.14
2018-10-21T00:48:52.056Z,1021.11
2018-10-21T00:49:53.440Z,1021.10
2018-10-21T00:50:54.852Z,1021.09
2018-10-21T00:51:56.189Z,1021.07
2018-10-21T00:52:57.570Z,1021.07
2018-10-21T00:53:58.940Z,1021.09
2018-10-21T00:55:00.352Z,1021.10
2018-10-21T00:56:01.703Z,1021.09
2018-10-21T00:57:03.103Z,1021.07
2018-10-21T00:58:04.414Z,1021.08
2018-10-21T00:59:05.792Z,1021.05
2018-10-21T01:00:07.164Z,1021.04
2018-10-21T01:01:08.546Z,1021.05
2018-10-21T01:02:09.918Z,1021.04
2018-10-21T01:03:11.361Z,1021.01
2018-10-21T01:04:12.674Z,1021.02
2018-10-21T01:05:13.960Z,1021.05
2018-10-21T01:06:15.332Z,1021.03
2018-10-21T01:07:16.714Z,1021.03
2018-10-21T01:08:18.087Z,1021.00
2018-10-21T01:09:19.566Z,1020.97
2018-10-21T01:10:20.842Z,1020.97
2018-10-21T01:11:22.219Z,1020.95
2018-10-21T01:12:23.593Z,1020.97
2018-10-21T01:13:24.971Z,1020.97
2018-10-21T01:14:26.348Z,1020.94
2018-10-21T01:15:27.719Z,1020.92
2018-10-21T01:16:29.104Z,1020.91
2018-10-21T01:17:30.473Z,1020.91
2018-10-21T01:18:31.859Z,1020.93
2018-10-21T01:19:33.230Z,1020.90
2018-10-21T01:20:34.624Z,1020.96
2018-10-21T01:21:35.985Z,1020.89
2018-10-21T01:22:37.359Z,1020.87
2018-10-21T01:23:38.732Z,1020.92
2018-10-21T01:24:40.104Z,1020.86
2018-10-21T01:25:41.484Z,1020.88
2018-10-21T01:26:42.854Z,1020.88
2018-10-21T01:27:44.232Z,1020.94
2018-10-21T01:28:45.614Z,1020.94
2018-10-21T01:29:46.988Z,1020.96
2018-10-21T01:30:48.364Z,1020.98
2018-10-21T01:31:49.743Z,1020.98
2018-10-21T01:32:51.109Z,1020.97
2018-10-21T01:33:52.485Z,1020.97
2018-10-21T01:34:53.860Z,1020.97
2018-10-21T01:35:55.236Z,1020.93
2018-10-21T01:36:56.715Z,1020.99
2018-10-21T01:37:58.015Z,1020.98
2018-10-21T01:38:59.281Z,1020.97
2018-10-21T01:40:00.651Z,1020.94
2018-10-21T01:41:02.021Z,1020.99
2018-10-21T01:42:03.405Z,1020.97
2018-10-21T01:43:04.775Z,1021.01
2018-10-21T01:44:06.165Z,1020.92
2018-10-21T01:45:07.543Z,1021.00
2018-10-21T01:46:08.913Z,1020.93
2018-10-21T01:47:10.291Z,1020.95
2018-10-21T01:48:11.661Z,1020.96
2018-10-21T01:49:13.042Z,1020.95
2018-10-21T01:50:14.406Z,1021.00
2018-10-21T01:51:15.831Z,1020.93
2018-10-21T01:52:17.106Z,1021.00
2018-10-21T01:53:18.486Z,1021.00
2018-10-21T01:54:19.861Z,1021.03
2018-10-21T01:55:21.229Z,1021.02
2018-10-21T01:56:22.605Z,1021.04
2018-10-21T01:57:23.986Z,1021.00
2018-10-21T01:58:25.364Z,1021.01
2018-10-21T01:59:27.416Z,1021.00
2018-10-21T02:00:28.786Z,1020.95
2018-10-21T02:01:30.163Z,1020.99
2018-10-21T02:02:31.529Z,1020.97
2018-10-21T02:03:32.899Z,1020.96
2018-10-21T02:04:34.290Z,1020.93
2018-10-21T02:05:35.663Z,1021.01
2018-10-21T02:06:37.037Z,1021.01
2018-10-21T02:07:38.407Z,1021.01
2018-10-21T02:08:39.783Z,1021.02
2018-10-21T02:09:41.159Z,1020.98
2018-10-21T02:10:42.533Z,1021.00
2018-10-21T02:11:43.913Z,1021.02
2018-10-21T02:12:45.287Z,1021.01
2018-10-21T02:13:46.656Z,1021.04
2018-10-21T02:14:48.030Z,1021.02
2018-10-21T02:15:49.405Z,1021.05
2018-10-21T02:16:50.782Z,1021.01
2018-10-21T02:17:52.156Z,1021.02
2018-10-21T02:18:53.534Z,1021.03
2018-10-21T02:19:54.909Z,1021.04
2018-10-21T02:20:56.290Z,1021.04
2018-10-21T02:21:58.294Z,1021.02
2018-10-21T02:22:59.664Z,1021.04
2018-10-21T02:24:01.046Z,1021.06
2018-10-21T02:25:02.420Z,1021.06
2018-10-21T02:26:03.788Z,1021.10
2018-10-21T02:27:05.186Z,1021.11
2018-10-21T02:28:06.514Z,1021.08
2018-10-21T02:29:07.870Z,1021.11
2018-10-21T02:30:09.249Z,1021.13
2018-10-21T02:31:10.618Z,1021.11
2018-10-21T02:32:11.997Z,1021.16
2018-10-21T02:33:13.427Z,1021.15
2018-10-21T02:34:14.754Z,1021.18
2018-10-21T02:35:16.123Z,1021.14
2018-10-21T02:36:17.492Z,1021.20
2018-10-21T02:37:18.875Z,1021.17
2018-10-21T02:38:20.251Z,1021.19
2018-10-21T02:39:21.649Z,1021.21
2018-10-21T02:40:23.041Z,1021.25
2018-10-21T02:41:24.439Z,1021.25
2018-10-21T02:42:25.866Z,1021.31
2018-10-21T02:43:27.268Z,1021.26
2018-10-21T02:44:28.660Z,1021.27
2018-10-21T02:45:30.030Z,1021.28
2018-10-21T02:46:31.406Z,1021.27
2018-10-21T02:47:32.780Z,1021.26
2018-10-21T02:48:34.156Z,1021.30
2018-10-21T02:49:35.534Z,1021.26
2018-10-21T02:50:36.908Z,1021.27
2018-10-21T02:51:38.278Z,1021.28
2018-10-21T02:52:39.656Z,1021.28
2018-10-21T02:53:41.036Z,1021.24
2018-10-21T02:54:42.414Z,1021.29
2018-10-21T02:55:43.782Z,1021.21
2018-10-21T02:56:45.165Z,1021.21
2018-10-21T02:57:46.543Z,1021.20
2018-10-21T02:58:48.670Z,1021.18
2018-10-21T02:59:50.037Z,1021.18
2018-10-21T03:00:51.407Z,1021.22
2018-10-21T03:01:52.789Z,1021.17
2018-10-21T03:02:54.206Z,1021.19
2018-10-21T03:03:55.519Z,1021.18
2018-10-21T03:04:56.897Z,1021.15
2018-10-21T03:05:58.267Z,1021.15
2018-10-21T03:06:59.647Z,1021.16
2018-10-21T03:08:01.021Z,1021.12
2018-10-21T03:09:03.086Z,1021.13
2018-10-21T03:10:04.449Z,1021.12
2018-10-21T03:11:05.819Z,1021.15
2018-10-21T03:12:07.196Z,1021.13
2018-10-21T03:13:08.563Z,1021.17
2018-10-21T03:14:10.455Z,1021.14
2018-10-21T03:15:11.832Z,1021.13
2018-10-21T03:16:14.073Z,1021.10
2018-10-21T03:17:15.974Z,1021.12
2018-10-21T03:18:17.401Z,1021.12
2018-10-21T03:19:18.721Z,1021.16
2018-10-21T03:20:20.096Z,1021.14
2018-10-21T03:21:22.213Z,1021.14
2018-10-21T03:22:23.512Z,1021.20
2018-10-21T03:23:24.881Z,1021.16
2018-10-21T03:24:26.245Z,1021.12
2018-10-21T03:25:27.625Z,1021.18
2018-10-21T03:26:29.001Z,1021.21
2018-10-21T03:27:30.371Z,1021.15
2018-10-21T03:28:32.577Z,1021.19
2018-10-21T03:29:33.950Z,1021.21
2018-10-21T03:30:35.317Z,1021.25
2018-10-21T03:31:36.700Z,1021.20
2018-10-21T03:32:38.067Z,1021.21
2018-10-21T03:33:40.124Z,1021.18
2018-10-21T03:34:41.271Z,1021.14
2018-10-21T03:35:42.646Z,1021.14
2018-10-21T03:36:44.016Z,1021.09
2018-10-21T03:37:45.396Z,1021.13
2018-10-21T03:38:46.760Z,1021.12
2018-10-21T03:39:48.134Z,1021.15
2018-10-21T03:40:49.516Z,1021.17
2018-10-21T03:41:50.883Z,1021.17
2018-10-21T03:42:52.256Z,1021.16
2018-10-21T03:43:53.638Z,1021.14
2018-10-21T03:44:55.014Z,1021.10
2018-10-21T03:45:56.393Z,1021.16
2018-10-21T03:46:58.486Z,1021.14
2018-10-21T03:47:59.860Z,1021.15
2018-10-21T03:49:01.242Z,1021.17
2018-10-21T03:50:02.616Z,1021.15
2018-10-21T03:51:03.994Z,1021.09
2018-10-21T03:52:05.376Z,1021.16
2018-10-21T03:53:06.739Z,1021.15
2018-10-21T03:54:08.111Z,1021.16
2018-10-21T03:55:10.778Z,1021.15
2018-10-21T03:56:13.694Z,1021.16
2018-10-21T03:57:15.075Z,1021.19
2018-10-21T03:58:16.548Z,1021.19
2018-10-21T03:59:17.817Z,1021.22
2018-10-21T04:00:19.196Z,1021.21
2018-10-21T04:01:20.569Z,1021.24
2018-10-21T04:02:21.949Z,1021.27
2018-10-21T04:03:23.875Z,1021.32
2018-10-21T04:04:25.249Z,1021.29
2018-10-21T04:05:26.629Z,1021.29
2018-10-21T04:06:27.997Z,1021.31
2018-10-21T04:07:30.249Z,1021.27
2018-10-21T04:08:31.615Z,1021.31
2018-10-21T04:09:32.992Z,1021.28
2018-10-21T04:10:34.368Z,1021.25
2018-10-21T04:11:35.748Z,1021.29
2018-10-21T04:12:37.166Z,1021.31
2018-10-21T04:13:38.494Z,1021.35
2018-10-21T04:14:39.864Z,1021.32
2018-10-21T04:15:41.244Z,1021.34
2018-10-21T04:16:42.624Z,1021.39
2018-10-21T04:17:43.991Z,1021.42
2018-10-21T04:18:45.366Z,1021.40
2018-10-21T04:19:46.748Z,1021.45
2018-10-21T04:20:48.119Z,1021.43
2018-10-21T04:21:49.502Z,1021.48
2018-10-21T04:22:50.868Z,1021.45
2018-10-21T04:23:52.239Z,1021.47
2018-10-21T04:24:54.254Z,1021.50
2018-10-21T04:25:55.635Z,1021.52
2018-10-21T04:26:57.013Z,1021.47
2018-10-21T04:27:58.437Z,1021.54
2018-10-21T04:28:59.724Z,1021.54
2018-10-21T04:30:01.090Z,1021.55
2018-10-21T04:31:02.469Z,1021.53
2018-10-21T04:32:03.845Z,1021.53
2018-10-21T04:33:06.119Z,1021.54
2018-10-21T04:34:07.533Z,1021.55
2018-10-21T04:35:08.878Z,1021.51
2018-10-21T04:36:10.249Z,1021.48
2018-10-21T04:37:12.550Z,1021.50
2018-10-21T04:38:13.918Z,1021.49
2018-10-21T04:39:15.284Z,1021.54
2018-10-21T04:40:16.692Z,1021.49
2018-10-21T04:41:18.053Z,1021.48
2018-10-21T04:42:19.430Z,1021.48
2018-10-21T04:43:20.806Z,1021.47
2018-10-21T04:44:23.154Z,1021.47
2018-10-21T04:45:24.527Z,1021.42
2018-10-21T04:46:26.009Z,1021.46
2018-10-21T04:47:27.293Z,1021.46
2018-10-21T04:48:28.694Z,1021.40
2018-10-21T04:49:30.069Z,1021.37
2018-10-21T04:50:33.047Z,1021.37
2018-10-21T04:51:34.442Z,1021.37
2018-10-21T04:52:36.379Z,1021.34
2018-10-21T04:53:37.145Z,1021.32
2018-10-21T04:54:38.521Z,1021.34
2018-10-21T04:55:39.918Z,1021.32
2018-10-21T04:56:41.301Z,1021.28
2018-10-21T04:57:42.669Z,1021.30
2018-10-21T04:58:44.902Z,1021.28
2018-10-21T04:59:46.268Z,1021.25
2018-10-21T05:00:47.715Z,1021.29
2018-10-21T05:01:48.998Z,1021.29
2018-10-21T05:02:50.385Z,1021.24
2018-10-21T05:03:51.758Z,1021.22
2018-10-21T05:04:53.132Z,1021.20
2018-10-21T05:05:55.089Z,1021.24
2018-10-21T05:06:56.465Z,1021.25
2018-10-21T05:07:57.838Z,1021.21
2018-10-21T05:08:59.208Z,1021.20
2018-10-21T05:10:00.644Z,1021.23
2018-10-21T05:11:01.977Z,1021.22
2018-10-21T05:12:03.356Z,1021.17
2018-10-21T05:13:04.743Z,1021.16
2018-10-21T05:14:07.024Z,1021.21
2018-10-21T05:15:10.111Z,1021.16
2018-10-21T05:16:11.490Z,1021.19
2018-10-21T05:17:12.841Z,1021.18
2018-10-21T05:18:14.224Z,1021.17
2018-10-21T05:19:15.608Z,1021.17
2018-10-21T05:20:16.987Z,1021.14
2018-10-21T05:21:18.358Z,1021.15
2018-10-21T05:22:19.793Z,1021.19
2018-10-21T05:23:21.072Z,1021.18
2018-10-21T05:24:22.449Z,1021.23
2018-10-21T05:25:23.824Z,1021.21
2018-10-21T05:26:25.198Z,1021.19
2018-10-21T05:27:26.570Z,1021.19
2018-10-21T05:28:27.959Z,1021.19
2018-10-21T05:29:29.327Z,1021.20
2018-10-21T05:30:30.699Z,1021.20
2018-10-21T05:31:32.068Z,1021.23
2018-10-21T05:32:33.444Z,1021.28
2018-10-21T05:33:34.820Z,1021.34
2018-10-21T05:34:36.191Z,1021.35
2018-10-21T05:35:37.606Z,1021.41
2018-10-21T05:36:38.982Z,1021.41
2018-10-21T05:37:40.348Z,1021.37
2018-10-21T05:38:41.741Z,1021.41
2018-10-21T05:39:43.118Z,1021.40
2018-10-21T05:40:44.509Z,1021.41
2018-10-21T05:41:45.888Z,1021.40
2018-10-21T05:42:47.250Z,1021.34
2018-10-21T05:43:48.639Z,1021.38
2018-10-21T05:44:50.015Z,1021.38
2018-10-21T05:45:51.389Z,1021.36
2018-10-21T05:46:53.602Z,1021.38
2018-10-21T05:47:54.856Z,1021.39
2018-10-21T05:48:56.248Z,1021.44
2018-10-21T05:49:57.629Z,1021.46
2018-10-21T05:50:59.005Z,1021.40
2018-10-21T05:52:00.470Z,1021.41
2018-10-21T05:53:01.769Z,1021.40
2018-10-21T05:54:03.139Z,1021.41
2018-10-21T05:55:04.566Z,1021.42
2018-10-21T05:56:06.889Z,1021.36
2018-10-21T05:57:07.260Z,1021.41
2018-10-21T05:58:08.646Z,1021.42
2018-10-21T05:59:10.010Z,1021.45
2018-10-21T06:00:11.388Z,1021.44
2018-10-21T06:01:12.773Z,1021.42
2018-10-21T06:02:14.141Z,1021.46
2018-10-21T06:03:15.515Z,1021.42
2018-10-21T06:04:16.966Z,1021.43
2018-10-21T06:05:18.266Z,1021.46
2018-10-21T06:06:19.648Z,1021.41
2018-10-21T06:07:21.031Z,1021.42
2018-10-21T06:08:22.364Z,1021.42
2018-10-21T06:09:23.746Z,1021.44
2018-10-21T06:10:25.123Z,1021.44
2018-10-21T06:11:26.503Z,1021.44
2018-10-21T06:12:27.874Z,1021.45
2018-10-21T06:13:29.257Z,1021.45
2018-10-21T06:14:30.631Z,1021.44
2018-10-21T06:15:32.019Z,1021.47
2018-10-21T06:16:33.400Z,1021.43
2018-10-21T06:17:34.768Z,1021.47
2018-10-21T06:18:36.144Z,1021.48
2018-10-21T06:19:37.526Z,1021.47
2018-10-21T06:20:38.900Z,1021.47
2018-10-21T06:21:40.288Z,1021.45
2018-10-21T06:22:41.658Z,1021.42
2018-10-21T06:23:43.099Z,1021.44
2018-10-21T06:24:44.411Z,1021.50
2018-10-21T06:25:45.787Z,1021.49
2018-10-21T06:26:47.158Z,1021.44
2018-10-21T06:27:48.580Z,1021.47
2018-10-21T06:28:49.869Z,1021.46
2018-10-21T06:29:51.242Z,1021.52
2018-10-21T06:30:53.519Z,1021.52
2018-10-21T06:31:54.895Z,1021.55
2018-10-21T06:32:56.323Z,1021.60
2018-10-21T06:33:57.651Z,1021.59
2018-10-21T06:34:59.044Z,1021.59
2018-10-21T06:36:00.425Z,1021.63
2018-10-21T06:37:01.809Z,1021.66
2018-10-21T06:38:03.184Z,1021.67
2018-10-21T06:39:04.620Z,1021.71
2018-10-21T06:40:05.958Z,1021.76
2018-10-21T06:41:07.334Z,1021.79
2018-10-21T06:42:08.711Z,1021.81
2018-10-21T06:43:10.078Z,1021.84
2018-10-21T06:44:11.465Z,1021.79
2018-10-21T06:45:12.934Z,1021.80
2018-10-21T06:46:14.171Z,1021.79
2018-10-21T06:47:15.556Z,1021.80
2018-10-21T06:48:17.007Z,1021.83
2018-10-21T06:49:18.324Z,1021.83
2018-10-21T06:50:19.710Z,1021.83
2018-10-21T06:51:21.090Z,1021.75
2018-10-21T06:52:22.476Z,1021.80
2018-10-21T06:53:23.860Z,1021.81
2018-10-21T06:54:25.234Z,1021.81
2018-10-21T06:55:26.612Z,1021.80
2018-10-21T06:56:28.122Z,1021.78
2018-10-21T06:57:29.524Z,1021.82
2018-10-21T06:58:30.784Z,1021.79
2018-10-21T06:59:32.167Z,1021.81
2018-10-21T07:00:33.547Z,1021.76
2018-10-21T07:01:35.813Z,1021.80
2018-10-21T07:02:38.120Z,1021.80
2018-10-21T07:03:41.039Z,1021.81
2018-10-21T07:04:42.472Z,1021.81
2018-10-21T07:05:43.819Z,1021.81
2018-10-21T07:06:45.197Z,1021.79
2018-10-21T07:07:46.591Z,1021.79
2018-10-21T07:08:47.967Z,1021.76
2018-10-21T07:09:49.353Z,1021.79
2018-10-21T07:10:50.731Z,1021.80
2018-10-21T07:11:52.111Z,1021.82
2018-10-21T07:12:53.498Z,1021.79
2018-10-21T07:13:54.890Z,1021.82
2018-10-21T07:14:56.266Z,1021.84
2018-10-21T07:15:57.685Z,1021.82
2018-10-21T07:16:59.033Z,1021.91
2018-10-21T07:18:00.412Z,1021.89
2018-10-21T07:19:01.796Z,1021.89
2018-10-21T07:20:03.181Z,1021.90
2018-10-21T07:21:04.556Z,1021.89
2018-10-21T07:22:05.997Z,1021.95
2018-10-21T07:23:07.276Z,1021.97
2018-10-21T07:24:08.651Z,1021.95
2018-10-21T07:25:10.027Z,1021.92
2018-10-21T07:26:11.408Z,1021.92
2018-10-21T07:27:12.785Z,1021.96
2018-10-21T07:28:14.269Z,1021.93
2018-10-21T07:29:15.557Z,1021.92
2018-10-21T07:30:16.949Z,1021.95
2018-10-21T07:31:18.319Z,1021.94
2018-10-21T07:32:19.713Z,1021.93
2018-10-21T07:33:21.085Z,1021.91
2018-10-21T07:34:22.466Z,1021.94
2018-10-21T07:35:23.857Z,1021.94
2018-10-21T07:36:25.356Z,1021.95
2018-10-21T07:37:26.587Z,1021.99
2018-10-21T07:38:27.980Z,1022.02
2018-10-21T07:39:29.362Z,1022.00
2018-10-21T07:40:30.753Z,1021.98
2018-10-21T07:41:32.145Z,1022.01
2018-10-21T07:42:33.532Z,1022.04
2018-10-21T07:43:34.915Z,1022.05
2018-10-21T07:44:36.298Z,1022.05
2018-10-21T07:45:38.317Z,1022.05
2018-10-21T07:46:39.702Z,1022.08
2018-10-21T07:47:41.085Z,1022.12
2018-10-21T07:48:43.435Z,1022.14
2018-10-21T07:49:44.804Z,1022.09
2018-10-21T07:50:46.203Z,1022.13
2018-10-21T07:51:47.582Z,1022.10
2018-10-21T07:52:48.970Z,1022.11
2018-10-21T07:53:50.358Z,1022.14
2018-10-21T07:54:51.745Z,1022.10
2018-10-21T07:55:53.140Z,1022.10
2018-10-21T07:56:55.257Z,1022.13
2018-10-21T07:57:57.401Z,1022.08
2018-10-21T07:58:58.743Z,1022.09
2018-10-21T08:00:01.016Z,1022.03
2018-10-21T08:01:01.578Z,1022.02
2018-10-21T08:02:03.520Z,1022.04
2018-10-21T08:03:05.817Z,1022.09
2018-10-21T08:04:07.214Z,1022.09
2018-10-21T08:05:08.572Z,1022.11
2018-10-21T08:06:09.955Z,1022.18
2018-10-21T08:07:11.348Z,1022.22
2018-10-21T08:08:13.483Z,1022.21
2018-10-21T08:09:14.832Z,1022.23
2018-10-21T08:10:16.278Z,1022.25
2018-10-21T08:11:17.606Z,1022.29
2018-10-21T08:12:18.985Z,1022.26
2018-10-21T08:13:20.374Z,1022.23
2018-10-21T08:14:21.751Z,1022.24
2018-10-21T08:15:23.161Z,1022.18
2018-10-21T08:16:24.546Z,1022.18
2018-10-21T08:17:25.947Z,1022.13
2018-10-21T08:18:27.327Z,1022.18
2018-10-21T08:19:28.711Z,1022.20
2018-10-21T08:20:30.097Z,1022.23
2018-10-21T08:21:31.493Z,1022.19
2018-10-21T08:22:32.885Z,1022.20
2018-10-21T08:23:34.268Z,1022.19
2018-10-21T08:24:35.656Z,1022.23
2018-10-21T08:25:37.048Z,1022.27
2018-10-21T08:26:38.421Z,1022.20
2018-10-21T08:27:39.817Z,1022.24
2018-10-21T08:28:41.205Z,1022.27
2018-10-21T08:29:42.600Z,1022.27
2018-10-21T08:30:43.985Z,1022.24
2018-10-21T08:31:45.389Z,1022.25
2018-10-21T08:32:46.782Z,1022.24
2018-10-21T08:33:48.172Z,1022.25
2018-10-21T08:34:50.078Z,1022.29
2018-10-21T08:35:51.478Z,1022.27
2018-10-21T08:36:52.859Z,1022.24
2018-10-21T08:37:54.249Z,1022.24
2018-10-21T08:38:55.588Z,1022.24
2018-10-21T08:39:56.984Z,1022.18
2018-10-21T08:40:58.375Z,1022.21
2018-10-21T08:41:59.760Z,1022.22
2018-10-21T08:43:01.166Z,1022.17
2018-10-21T08:44:02.557Z,1022.20
2018-10-21T08:45:04.851Z,1022.18
2018-10-21T08:46:07.809Z,1022.19
2018-10-21T08:47:09.188Z,1022.19
2018-10-21T08:48:11.561Z,1022.21
2018-10-21T08:49:13.027Z,1022.21
2018-10-21T08:50:14.354Z,1022.16
2018-10-21T08:51:15.750Z,1022.13
2018-10-21T08:52:17.212Z,1022.16
2018-10-21T08:53:18.483Z,1022.20
2018-10-21T08:54:19.869Z,1022.19
2018-10-21T08:55:21.777Z,1022.16
2018-10-21T08:56:23.173Z,1022.20
2018-10-21T08:57:24.556Z,1022.26
2018-10-21T08:58:25.941Z,1022.20
2018-10-21T08:59:27.332Z,1022.23
2018-10-21T09:00:28.717Z,1022.23
2018-10-21T09:01:30.115Z,1022.23
2018-10-21T09:02:31.511Z,1022.26
2018-10-21T09:03:32.897Z,1022.25
2018-10-21T09:04:35.091Z,1022.23
2018-10-21T09:05:36.472Z,1022.25
2018-10-21T09:06:37.852Z,1022.27
2018-10-21T09:07:39.205Z,1022.28
2018-10-21T09:08:40.545Z,1022.25
2018-10-21T09:09:41.942Z,1022.24
2018-10-21T09:10:44.214Z,1022.27
2018-10-21T09:11:45.478Z,1022.29
2018-10-21T09:12:46.875Z,1022.33
2018-10-21T09:13:48.822Z,1022.33
2018-10-21T09:14:50.234Z,1022.29
2018-10-21T09:15:51.599Z,1022.30
2018-10-21T09:16:52.987Z,1022.27
2018-10-21T09:17:54.381Z,1022.24
2018-10-21T09:18:55.791Z,1022.20
2018-10-21T09:19:57.117Z,1022.19
2018-10-21T09:20:58.517Z,1022.18
2018-10-21T09:22:00.073Z,1022.19
2018-10-21T09:23:01.412Z,1022.16
2018-10-21T09:24:02.767Z,1022.23
2018-10-21T09:25:04.179Z,1022.19
2018-10-21T09:26:05.553Z,1022.19
2018-10-21T09:27:06.950Z,1022.19
2018-10-21T09:28:08.376Z,1022.21
2018-10-21T09:29:10.490Z,1022.20
2018-10-21T09:30:12.833Z,1022.21
2018-10-21T09:31:14.307Z,1022.22
2018-10-21T09:32:15.629Z,1022.21
2018-10-21T09:33:17.043Z,1022.26
2018-10-21T09:34:19.001Z,1022.24
2018-10-21T09:35:20.299Z,1022.25
2018-10-21T09:36:21.687Z,1022.22
2018-10-21T09:37:23.073Z,1022.17
2018-10-21T09:38:25.336Z,1022.16
2018-10-21T09:39:26.742Z,1022.13
2018-10-21T09:40:28.122Z,1022.11
2018-10-21T09:41:29.512Z,1022.13
2018-10-21T09:42:30.904Z,1022.15
2018-10-21T09:43:32.294Z,1022.14
2018-10-21T09:44:34.592Z,1022.17
2018-10-21T09:45:36.932Z,1022.13
2018-10-21T09:46:37.320Z,1022.14
2018-10-21T09:47:38.709Z,1022.19
2018-10-21T09:48:40.100Z,1022.16
2018-10-21T09:49:42.109Z,1022.13
2018-10-21T09:50:43.476Z,1022.11
2018-10-21T09:51:44.872Z,1022.12
2018-10-21T09:52:46.262Z,1022.07
2018-10-21T09:53:47.611Z,1022.11
2018-10-21T09:54:49.005Z,1022.09
2018-10-21T09:55:50.388Z,1022.07
2018-10-21T09:56:51.787Z,1022.07
2018-10-21T09:57:53.190Z,1022.05
2018-10-21T09:58:54.569Z,1022.04
2018-10-21T09:59:55.966Z,1022.06
2018-10-21T10:00:57.402Z,1022.06
2018-10-21T10:01:58.761Z,1022.06
2018-10-21T10:03:00.785Z,1022.06
2018-10-21T10:04:02.230Z,1022.06
2018-10-21T10:05:03.541Z,1022.07
2018-10-21T10:06:04.931Z,1021.95
2018-10-21T10:07:06.380Z,1022.06
2018-10-21T10:08:08.342Z,1022.06
2018-10-21T10:09:09.743Z,1022.02
2018-10-21T10:10:11.238Z,1022.01
2018-10-21T10:11:12.541Z,1022.03
2018-10-21T10:12:14.895Z,1022.03
2018-10-21T10:13:16.294Z,1021.98
2018-10-21T10:14:17.677Z,1021.98
2018-10-21T10:15:21.163Z,1021.96
2018-10-21T10:16:22.504Z,1021.92
2018-10-21T10:17:23.907Z,1021.93
2018-10-21T10:18:25.298Z,1022.00
2018-10-21T10:19:26.694Z,1022.02
2018-10-21T10:20:28.943Z,1021.99
2018-10-21T10:21:30.376Z,1022.01
2018-10-21T10:22:31.761Z,1021.97
2018-10-21T10:23:33.211Z,1021.89
2018-10-21T10:24:35.445Z,1021.85
2018-10-21T10:25:35.894Z,1021.78
2018-10-21T10:26:37.290Z,1021.79
2018-10-21T10:27:38.688Z,1021.83
2018-10-21T10:28:40.079Z,1021.79
2018-10-21T10:29:41.464Z,1021.77
2018-10-21T10:30:42.863Z,1021.79
2018-10-21T10:31:44.244Z,1021.74
2018-10-21T10:32:45.675Z,1021.69
2018-10-21T10:33:47.145Z,1021.72
2018-10-21T10:34:52.656Z,1021.73
2018-10-21T10:35:54.956Z,1021.71
2018-10-21T10:36:55.394Z,1021.69
2018-10-21T10:37:58.252Z,1021.67
2018-10-21T10:39:02.835Z,1021.79
2018-10-21T10:40:04.252Z,1021.76
2018-10-21T10:41:08.288Z,1021.74
2018-10-21T10:42:13.786Z,1021.73
2018-10-21T10:43:15.453Z,1021.73
2018-10-21T10:44:19.334Z,1021.70
2018-10-21T10:45:20.679Z,1021.74
2018-10-21T10:46:23.427Z,1021.65
2018-10-21T10:47:26.789Z,1021.66
2018-10-21T10:48:28.131Z,1021.63
2018-10-21T10:49:30.508Z,1021.62
2018-10-21T10:50:33.545Z,1021.65
2018-10-21T10:51:37.447Z,1021.68
2018-10-21T10:52:38.852Z,1021.65
2018-10-21T10:53:40.261Z,1021.66
2018-10-21T10:54:43.492Z,1021.56
2018-10-21T10:55:44.877Z,1021.66
2018-10-21T10:56:46.228Z,1021.56
2018-10-21T10:57:51.181Z,1021.55
2018-10-21T10:58:53.328Z,1021.57
2018-10-21T10:59:54.859Z,1021.60
2018-10-21T11:00:59.661Z,1021.60
2018-10-21T11:02:01.041Z,1021.58
2018-10-21T11:03:02.428Z,1021.56
2018-10-21T11:04:07.780Z,1021.55
2018-10-21T11:05:10.199Z,1021.57
2018-10-21T11:06:13.386Z,1021.56
2018-10-21T11:07:14.789Z,1021.53
2018-10-21T11:08:16.060Z,1021.51
2018-10-21T11:09:20.483Z,1021.55
2018-10-21T11:10:21.864Z,1021.55
2018-10-21T11:11:26.057Z,1021.55
2018-10-21T11:12:28.660Z,1021.49
2018-10-21T11:13:31.599Z,1021.53
2018-10-21T11:14:33.055Z,1021.49
2018-10-21T11:15:34.387Z,1021.49
2018-10-21T11:16:35.768Z,1021.46
2018-10-21T11:17:37.160Z,1021.45
2018-10-21T11:18:39.350Z,1021.45
2018-10-21T11:19:40.745Z,1021.47
2018-10-21T11:20:42.125Z,1021.47
2018-10-21T11:21:44.216Z,1021.46
2018-10-21T11:22:45.650Z,1021.47
2018-10-21T11:23:48.475Z,1021.46
2018-10-21T11:24:50.365Z,1021.44
2018-10-21T11:25:51.760Z,1021.43
2018-10-21T11:26:53.324Z,1021.39
2018-10-21T11:27:54.768Z,1021.47
2018-10-21T11:28:56.073Z,1021.41
2018-10-21T11:29:57.473Z,1021.47
2018-10-21T11:30:58.880Z,1021.42
2018-10-21T11:32:01.054Z,1021.42
2018-10-21T11:33:04.177Z,1021.43
2018-10-21T11:34:06.348Z,1021.36
2018-10-21T11:35:08.237Z,1021.39
2018-10-21T11:36:09.597Z,1021.45
2018-10-21T11:37:11.023Z,1021.40
2018-10-21T11:38:12.347Z,1021.36
2018-10-21T11:39:14.356Z,1021.33
2018-10-21T11:40:16.409Z,1021.35
2018-10-21T11:41:18.488Z,1021.31
2018-10-21T11:42:19.881Z,1021.33
2018-10-21T11:43:21.892Z,1021.31
2018-10-21T11:44:23.302Z,1021.39
2018-10-21T11:45:25.302Z,1021.35
2018-10-21T11:46:27.198Z,1021.33
2018-10-21T11:47:29.389Z,1021.24
2018-10-21T11:48:30.787Z,1021.30
2018-10-21T11:49:33.250Z,1021.20
2018-10-21T11:50:35.192Z,1021.22
2018-10-21T11:51:36.585Z,1021.22
2018-10-21T11:52:42.175Z,1021.21
2018-10-21T11:53:45.783Z,1021.20
2018-10-21T11:54:47.905Z,1021.20
2018-10-21T11:55:49.273Z,1021.18
2018-10-21T11:56:54.549Z,1021.21
2018-10-21T11:57:55.998Z,1021.21
2018-10-21T11:59:00.152Z,1021.24
2018-10-21T12:00:04.338Z,1021.22
2018-10-21T12:01:09.499Z,1021.17
2018-10-21T12:02:11.117Z,1021.21
2018-10-21T12:03:14.480Z,1021.22
2018-10-21T12:04:16.163Z,1021.21
2018-10-21T12:05:22.485Z,1021.20
2018-10-21T12:06:23.890Z,1021.19
2018-10-21T12:07:26.176Z,1021.18
2018-10-21T12:08:31.451Z,1021.17
2018-10-21T12:09:36.484Z,1021.14
2018-10-21T12:10:36.947Z,1021.15
2018-10-21T12:11:41.404Z,1021.19
2018-10-21T12:12:42.753Z,1021.15
2018-10-21T12:13:46.936Z,1021.12
2018-10-21T12:14:53.499Z,1021.09
2018-10-21T12:15:54.855Z,1021.05
2018-10-21T12:16:56.239Z,1021.00
2018-10-21T12:18:02.241Z,1021.01
2018-10-21T12:19:04.735Z,1021.02
2018-10-21T12:20:06.104Z,1021.03
2018-10-21T12:21:07.512Z,1021.02
2018-10-21T12:22:09.791Z,1020.96
2018-10-21T12:23:12.017Z,1020.97
2018-10-21T12:24:14.511Z,1020.95
2018-10-21T12:25:16.607Z,1020.96